LiveATC.Net - Listen to live air traffic control over the Internet!


ICAO: KBMI  IATA: BMI   Airport: Central Illinois Regional Airport at Bloomington-Normal
City: Bloomington/Normal   State/Province: Illinois
Country: United States   Continent: North America
KBMI METAR Weather: KBMI 151856Z 00000KT 10SM OVC080 M05/M08 A3012 RMK AO2 SLP210 T10501083
KBMI Flight Activity (FlightAware)
KBMI Airport Info   (iFlightPlanner)
KBMI VFR Sectional Chart   (iFlightPlanner) 
KBMI IFR Low Chart   (iFlightPlanner) 

KBMI Gnd/Twr/App/Dep
Feed Status: UP   Listeners: 0
Listen in your browser - HTML5 player (in browser, HTML5)
Click here to listen with your own player (launches your MP3 player)
Archive Access: KBMI Gnd/Twr/App/Dep
FacilityFrequency
Bloomington Ground121.650
Bloomington Tower124.600
Peoria Approach/Departure128.725

NOTICE

Unauthorized use prohibited. See LiveATC.net Terms of Service


Airport/ARTCC Code
Frequency Search
(e.g., 124.400, 128.75)
Site-wide search
 


Browse Feeds
Top 50 Feeds
Coverage Map
Bad Weather Areas

LiveATC FAQ
Offer LiveATC feed
Contact LiveATC.net
Press Inquiries

LiveATC on iPhone
LiveATC on Android

Windows Phone
Windows 8/10

LiveATC Mobile
(Mobile browser)

ATC Audio Archives
Interesting Recordings

LiveATC Forums


Home Page
About LiveATC.net
Make a Donation
Terms of Use
Privacy Policy

Canadian Air Freqs

AIRMETs/SIGMETs

FAA Airport Status
Nat'l Airspace Status
Arrival Demand Charts


Server Software By:
Icecast.org
Liquidsoap